Latest Weather Observations for Melbourne (Olympic Park)

IDV60801

Issued at 8:35 am EDT Tuesday 25 November 2014 (issued every 30 minutes, with the page automatically refreshed every 10 minutes)

About weather observations | Map of weather stations | Latest weather observations for VIC | Other Formats
Station Details ID: 086338 Name: MELBOURNE (OLYMPIC PARK) Lat: -37.83 Lon: 144.98 Height: 7.53 m
Data from the previous 72 hours. | See also: Recent months at Melbourne (Olympic Park)
Date/Time
EDT
Temp
°C
App
Temp
°C
Dew
Point
Rel
Hum
%
Delta-T
°C
Wind Press
QNH
hPa
Press
MSL
hPa
Rain
since 9 am
mm
Dir
 
Spd
km/h
Gust
km/h
Spd
kts
Gust
kts
25/08:30am 14.3 11.5 8.7 69 2.8 NW 13 20 7 11 1018.2 1018.2 12.6
25/08:00am 13.1 10.6 8.2 72 2.4 WNW 11 17 6 9 1017.6 1017.6 12.6
25/07:30am 13.2 11.5 8.5 73 2.3 WNW 7 13 4 7 1017.2 1017.2 12.6
25/07:00am 12.1 9.9 7.8 75 2.1 NW 9 15 5 8 1016.6 1016.6 12.6
25/06:30am 11.6 9.6 7.3 75 2.1 WNW 7 11 4 6 1016.3 1016.3 12.6
25/06:00am 11.5 9.1 7.2 75 2.1 WNW 9 15 5 8 1015.9 1015.9 12.6
25/05:30am 11.7 9.0 7.2 74 2.2 WNW 11 22 6 12 1015.6 1015.6 12.6
25/05:00am 11.8 9.5 7.3 74 2.2 W 9 20 5 11 1015.2 1015.2 12.6
25/04:30am 11.6 9.8 7.1 74 2.2 WSW 6 9 3 5 1015.0 1015.0 12.6
25/04:00am 11.9 9.2 7.2 73 2.3 WNW 11 20 6 11 1014.9 1014.9 12.6
25/03:30am 12.1 10.1 7.2 72 2.4 W 7 20 4 11 1014.9 1014.9 12.6
25/03:00am 12.3 10.0 7.4 72 2.4 WNW 9 17 5 9 1014.9 1014.9 12.6
25/02:30am 12.5 10.2 7.4 71 2.5 WNW 9 15 5 8 1014.9 1014.9 12.6
25/02:00am 12.3 11.0 7.6 73 2.3 W 4 9 2 5 1014.7 1014.7 12.6
25/01:30am 12.6 10.4 7.7 72 2.4 WNW 9 17 5 9 1014.5 1014.5 12.6
25/01:00am 12.9 11.2 7.6 70 2.6 WNW 6 13 3 7 1014.5 1014.5 12.6
25/12:30am 13.0 11.0 7.2 68 2.8 W 7 11 4 6 1014.5 1014.5 12.6
25/12:00am 13.3 11.0 7.3 67 2.9 W 9 17 5 9 1014.3 1014.3 12.6
 
Date/Time
EDT
Temp
°C
App
Temp
°C
Dew
Point
Rel
Hum
%
Delta-T
°C
Wind Press
QNH
hPa
Press
MSL
hPa
Rain
since 9 am
mm
Dir
 
Spd
km/h
Gust
km/h
Spd
kts
Gust
kts
24/11:30pm 13.5 11.7 7.9 69 2.8 W 7 13 4 7 1014.0 1014.0 12.6
24/11:00pm 13.8 12.0 9.3 74 2.3 W 9 15 5 8 1013.8 1013.8 12.6
24/10:30pm 13.8 12.8 10.4 80 1.8 W 6 15 3 8 1013.8 1013.8 12.6
24/10:00pm 14.2 13.1 10.6 79 1.9 W 7 17 4 9 1013.5 1013.5 12.6
24/09:30pm 14.6 13.5 10.6 77 2.1 W 7 20 4 11 1013.0 1013.0 12.6
24/09:00pm 14.7 14.5 11.8 83 1.6 W 4 13 2 7 1012.7 1012.7 12.6
24/08:30pm 14.5 12.5 11.6 83 1.6 SSW 13 28 7 15 1012.1 1012.1 12.6
24/08:00pm 14.9 13.7 11.7 81 1.7 W 9 19 5 10 1011.6 1011.6 12.6
24/07:30pm 14.8 14.4 12.5 86 1.3 - 6 - 3 - 1010.8 1010.8 12.6
24/07:00pm 15.5 13.5 13.9 90 0.9 SSW 17 35 9 19 1010.2 1010.2 12.6
24/06:30pm 17.1 16.2 13.8 81 1.9 SSW 11 22 6 12 1008.8 1008.8 12.2
24/06:00pm 17.8 17.6 14.7 82 1.8 SSW 9 17 5 9 1008.0 1008.0 12.2
24/05:30pm 17.3 18.0 15.6 90 1.0 WSW 6 15 3 8 1007.4 1007.4 12.2
24/05:00pm 16.8 16.9 15.5 92 0.8 SW 9 28 5 15 1007.0 1007.0 12.2
24/04:30pm 16.9 16.5 16.3 96 0.4 SW 13 24 7 13 1006.7 1006.7 12.2
24/04:00pm 17.8 19.3 17.6 99 0.1 SSW 6 9 3 5 1006.5 1006.5 11.6
24/03:30pm 17.5 19.1 17.0 97 0.3 WSW 4 7 2 4 1006.7 1006.7 10.0
24/03:00pm 17.9 18.6 17.1 95 0.5 SW 9 17 5 9 1006.7 1006.7 8.8
24/02:30pm 18.9 19.5 17.6 92 0.8 SSW 11 22 6 12 1006.1 1006.1 8.4
24/02:00pm 19.4 22.0 17.4 88 1.2 CALM 0 6 0 3 1006.0 1006.0 8.2
24/01:30pm 18.9 20.0 18.1 95 0.5 ESE 9 13 5 7 1005.5 1005.5 8.2
24/01:26pm 18.5 19.9 17.7 95 0.5 ESE 7 13 4 7 1006.0 1006.0 8.2
24/01:00pm 18.7 20.2 17.7 94 0.6 SSE 6 11 3 6 1008.0 1008.0 6.6
24/12:30pm 17.3 18.5 16.8 97 0.3 ESE 6 11 3 6 1008.1 1008.1 6.4
24/12:00pm 17.2 18.8 16.9 98 0.2 SE 4 7 2 4 1009.1 1009.1 4.6
24/11:30am 17.0 17.9 16.5 97 0.3 SSE 7 11 4 6 1009.2 1009.2 3.8
24/11:00am 17.2 18.3 15.7 91 0.9 NE 4 7 2 4 1009.5 1009.5 1.2
24/10:30am 16.8 17.9 15.5 92 0.8 SSE 4 7 2 4 1009.3 1009.3 1.2
24/10:00am 17.1 18.8 15.3 89 1.0 CALM 0 6 0 3 1009.7 1009.7 0.4
24/09:30am 16.9 18.2 15.2 90 1.0 SSW 2 6 1 3 1009.8 1009.8 0.2
24/09:00am 16.5 16.6 14.5 88 1.1 WSW 7 13 4 7 1009.6 1009.6 1.2
24/08:30am 17.7 16.2 13.2 75 2.5 W 13 20 7 11 1009.8 1009.8 0.0
24/08:24am 17.4 17.0 12.9 75 2.5 NNW 7 28 4 15 1009.8 1009.8 0.0
24/08:00am 16.5 15.6 12.5 77 2.2 N 9 15 5 8 1007.6 1007.6 0.0
24/07:30am 16.2 14.9 12.4 78 2.1 NNE 11 15 6 8 1007.2 1007.2 0.0
24/07:00am 16.1 15.4 12.1 77 2.2 N 7 13 4 7 1007.6 1007.6 0.0
24/06:30am 15.9 16.2 12.3 79 2.0 W 2 7 1 4 1008.5 1008.5 0.0
24/06:00am 16.1 16.6 12.7 80 1.9 SE 2 9 1 5 1008.5 1008.5 0.0
24/05:30am 15.7 15.4 11.5 76 2.3 NE 4 9 2 5 1008.3 1008.3 0.0
24/05:00am 15.0 15.8 12.7 86 1.3 CALM 0 4 0 2 1008.6 1008.6 0.0
24/04:30am 15.0 15.8 12.5 85 1.4 CALM 0 4 0 2 1008.4 1008.4 0.0
24/04:00am 14.7 15.4 12.2 85 1.4 CALM 0 0 0 0 1008.7 1008.7 0.0
24/03:30am 14.7 15.3 11.8 83 1.6 CALM 0 6 0 3 1009.2 1009.2 0.0
24/03:00am 14.7 15.3 12.0 84 1.5 CALM 0 0 0 0 1009.6 1009.6 0.0
24/02:30am 15.1 15.6 11.5 79 1.9 CALM 0 0 0 0 1010.1 1010.1 0.0
24/02:00am 15.5 16.0 11.7 78 2.1 CALM 0 0 0 0 1010.7 1010.7 0.0
24/01:30am 16.1 16.6 11.5 74 2.5 CALM 0 0 0 0 1010.9 1010.9 0.0
24/01:00am 16.7 16.3 9.9 64 3.6 ENE 2 7 1 4 1011.7 1011.7 0.0
24/12:30am 16.6 16.5 9.5 63 3.7 CALM 0 0 0 0 1012.3 1012.3 0.0
24/12:00am 16.9 16.5 9.6 62 3.8 SSW 2 7 1 4 1012.7 1012.7 0.0
 
Date/Time
EDT
Temp
°C
App
Temp
°C
Dew
Point
Rel
Hum
%
Delta-T
°C
Wind Press
QNH
hPa
Press
MSL
hPa
Rain
since 9 am
mm
Dir
 
Spd
km/h
Gust
km/h
Spd
kts
Gust
kts
23/11:30pm 17.2 16.7 10.6 65 3.5 S 4 9 2 5 1013.0 1013.0 0.0
23/11:00pm 17.4 16.8 10.5 64 3.7 S 4 9 2 5 1013.5 1013.5 0.0
23/10:30pm 17.7 16.6 10.1 61 4.0 SW 6 9 3 5 1013.8 1013.8 0.0
23/10:00pm 17.9 16.7 9.5 58 4.4 S 6 11 3 6 1013.4 1013.4 0.0
23/09:30pm 18.1 16.2 8.9 55 4.8 S 9 13 5 7 1013.1 1013.1 0.0
23/09:00pm 18.6 16.6 8.6 52 5.2 S 9 19 5 10 1012.7 1012.7 0.0
23/08:30pm 19.2 17.9 9.1 52 5.3 S 6 11 3 6 1013.3 1013.3 0.0
23/08:00pm 19.9 18.7 10.3 54 5.2 SSE 7 13 4 7 1012.8 1012.8 0.0
23/07:30pm 20.2 18.7 10.6 54 5.2 SSE 9 15 5 8 1012.7 1012.7 0.0
23/07:00pm 20.7 18.3 9.9 50 5.8 SE 13 20 7 11 1012.8 1012.8 0.0
23/06:30pm 21.1 19.8 11.4 54 5.4 SSE 9 19 5 10 1012.3 1012.3 0.0
23/06:00pm 20.6 18.5 12.3 59 4.7 SSW 15 26 8 14 1012.2 1012.2 0.0
23/05:30pm 21.4 19.8 12.8 58 4.9 SSW 13 22 7 12 1011.8 1011.8 0.0
23/05:00pm 22.4 20.4 12.6 54 5.6 SSW 15 24 8 13 1011.4 1011.4 0.0
23/04:30pm 23.7 22.4 13.6 53 5.9 SSW 13 24 7 13 1011.2 1011.2 0.0
23/04:00pm 22.2 20.3 14.3 61 4.6 SSW 17 30 9 16 1010.8 1010.8 0.0
23/03:30pm 22.0 20.4 13.9 60 4.7 S 15 28 8 15 1010.6 1010.6 0.0
23/03:00pm 22.1 20.4 13.7 59 4.9 SSW 15 26 8 14 1010.5 1010.5 0.0
23/02:30pm 22.5 21.4 14.4 60 4.8 S 13 22 7 12 1010.4 1010.4 0.0
23/02:00pm 22.3 20.9 13.4 57 5.1 SSW 13 24 7 13 1010.5 1010.5 0.0
23/01:30pm 21.7 20.1 13.9 61 4.5 SSW 15 22 8 12 1010.8 1010.8 0.0
23/01:00pm 20.9 19.7 14.1 65 3.9 SSW 13 20 7 11 1011.1 1011.1 0.0
23/12:30pm 20.5 19.4 14.4 68 3.6 SSW 13 20 7 11 1011.4 1011.4 0.0
23/12:00pm 20.4 19.6 15.0 71 3.2 SSW 13 19 7 10 1011.4 1011.4 0.0
23/11:30am 19.9 19.3 14.7 72 3.0 SSW 11 19 6 10 1011.8 1011.8 0.0
23/11:00am 19.7 19.2 14.9 74 2.8 SSW 11 20 6 11 1012.0 1012.0 0.0
23/10:30am 19.2 18.8 14.2 73 2.9 SSW 9 15 5 8 1012.4 1012.4 0.0
23/10:00am 18.8 18.1 14.3 75 2.6 SSW 11 17 6 9 1012.6 1012.6 0.0
23/09:30am 18.9 18.6 14.4 75 2.6 S 9 19 5 10 1012.7 1012.7 0.0
23/09:00am 18.8 18.4 14.1 74 2.7 S 9 15 5 8 1012.7 1012.7 0.0
23/08:30am 18.6 18.6 13.7 73 2.8 S 6 13 3 7 1012.5 1012.5 0.0
23/08:00am 17.8 18.1 13.5 76 2.4 S 4 11 2 6 1012.4 1012.4 0.0
23/07:30am 17.4 17.2 13.5 78 2.2 SSW 7 11 4 6 1011.9 1011.9 0.0
23/07:00am 17.2 18.3 13.5 79 2.1 CALM 0 0 0 0 1011.7 1011.7 0.0
23/06:30am 16.8 17.3 12.9 78 2.2 SSW 2 7 1 4 1011.6 1011.6 0.0
23/06:00am 16.6 16.8 12.9 79 2.1 SSW 4 9 2 5 1011.4 1011.4 0.0
23/05:30am 16.9 16.6 12.8 77 2.3 SW 6 11 3 6 1011.4 1011.4 0.0
23/05:00am 17.0 16.5 12.7 76 2.4 WSW 7 11 4 6 1011.2 1011.2 0.0
23/04:30am 17.2 16.4 12.9 76 2.4 WSW 9 15 5 8 1011.2 1011.2 0.0
23/04:00am 17.4 17.2 12.9 75 2.5 WSW 6 11 3 6 1010.7 1010.7 0.0
23/03:30am 17.8 17.0 12.9 73 2.7 WSW 9 17 5 9 1010.4 1010.4 0.0
23/03:00am 18.0 17.8 13.5 75 2.6 SSW 7 15 4 8 1010.1 1010.1 0.0
23/02:30am 18.0 18.4 13.7 76 2.4 SW 4 9 2 5 1010.0 1010.0 0.0
23/02:00am 17.7 17.8 13.8 78 2.2 SSW 6 9 3 5 1009.8 1009.8 0.0
23/01:30am 17.6 18.8 13.9 79 2.1 CALM 0 0 0 0 1009.9 1009.9 0.0
23/01:00am 18.1 19.4 14.2 78 2.2 CALM 0 0 0 0 1010.0 1010.0 0.0
23/12:30am 18.1 19.4 14.0 77 2.3 CALM 0 0 0 0 1009.8 1009.8 0.0
23/12:00am 18.5 19.3 13.6 73 2.8 SSW 2 7 1 4 1009.4 1009.4 0.0
 
Date/Time
EDT
Temp
°C
App
Temp
°C
Dew
Point
Rel
Hum
%
Delta-T
°C
Wind Press
QNH
hPa
Press
MSL
hPa
Rain
since 9 am
mm
Dir
 
Spd
km/h
Gust
km/h
Spd
kts
Gust
kts
22/11:30pm 18.8 19.2 13.6 72 3.0 SSW 4 11 2 6 1009.3 1009.3 0.0
22/11:00pm 19.3 19.0 13.2 68 3.5 SSW 7 17 4 9 1009.2 1009.2 0.0
22/10:30pm 20.0 19.9 13.2 65 3.9 SW 6 9 3 5 1009.0 1009.0 0.0
22/10:00pm 22.8 19.8 11.8 50 6.2 S 19 30 10 16 1007.9 1007.9 0.0
22/09:30pm 27.2 24.3 9.5 33 9.8 NNW 15 26 8 14 1006.8 1006.8 0.0
22/09:00pm 27.8 24.1 9.6 32 10.1 NNW 19 32 10 17 1006.4 1006.4 0.0
22/08:30pm 28.7 25.2 8.9 29 10.9 NNW 17 24 9 13 1006.1 1006.1 0.0
22/08:00pm 29.2 25.7 8.8 28 11.3 NNW 17 32 9 17 1005.6 1005.6 0.0
22/07:30pm 29.9 25.2 7.7 25 12.1 NNW 22 41 12 22 1005.2 1005.2 0.0
22/07:15pm 30.1 24.3 7.9 25 12.1 N 28 46 15 25 1004.7 1004.7 0.0
22/07:00pm 30.1 26.0 7.9 25 12.2 NNW 19 30 10 16 1005.0 1005.0 0.0
22/06:30pm 30.2 25.9 8.0 25 12.2 N 20 39 11 21 1005.2 1005.2 0.0
22/06:00pm 30.2 25.6 8.0 25 12.2 NNW 22 35 12 19 1005.2 1005.2 0.0
22/05:37pm 30.3 24.5 8.1 25 12.2 NNW 28 46 15 25 1005.1 1005.1 0.0
22/05:30pm 30.4 26.2 8.2 25 12.2 N 20 41 11 22 1005.0 1005.0 0.0
22/05:00pm 30.4 24.7 8.2 25 12.2 N 28 50 15 27 1005.2 1005.2 0.0
22/04:30pm 30.3 24.3 8.7 26 12.0 N 30 48 16 26 1005.3 1005.3 0.0
22/04:21pm 30.4 24.7 8.2 25 12.2 N 28 46 15 25 1005.5 1005.5 0.0
22/04:00pm 30.5 24.9 8.8 26 12.1 N 28 44 15 24 1005.7 1005.7 0.0
22/03:30pm 28.7 24.9 8.9 29 10.9 N 19 33 10 18 1006.5 1006.5 0.0
22/03:00pm 28.0 23.1 8.3 29 10.7 N 24 39 13 21 1007.6 1007.6 0.0
22/02:30pm 27.2 22.0 7.1 28 10.7 N 24 43 13 23 1007.4 1007.4 0.0
22/02:00pm 26.9 21.6 6.9 28 10.6 N 24 41 13 22 1007.6 1007.6 0.0
22/01:30pm 26.4 21.2 7.4 30 10.1 N 24 39 13 21 1008.1 1008.1 0.0
22/01:00pm 24.9 21.3 8.4 35 8.9 N 17 24 9 13 1008.4 1008.4 0.0
22/12:30pm 23.3 18.9 9.0 40 7.7 NNE 22 30 12 16 1008.7 1008.7 0.0
22/12:29pm 23.4 19.3 8.7 39 7.9 NNE 20 30 11 16 1008.9 1008.9 0.0
22/12:00pm 24.2 20.7 8.6 37 8.4 NNW 17 28 9 15 1011.2 1011.2 0.0
22/11:30am 21.5 21.2 12.6 57 5.0 N 6 15 3 8 1010.6 1010.6 0.0
22/11:00am 20.4 20.2 12.9 62 4.3 N 6 9 3 5 1010.6 1010.6 0.0
22/10:30am 19.4 18.5 12.7 65 3.8 NNE 9 13 5 7 1010.4 1010.4 0.0
22/10:00am 18.0 16.6 12.2 69 3.2 NNE 11 17 6 9 1010.7 1010.7 0.0
22/09:30am 17.8 17.2 12.3 70 3.0 NNE 7 11 4 6 1011.2 1011.2 0.0
22/09:00am 16.9 15.8 11.8 72 2.8 NE 9 11 5 6 1011.0 1011.0 0.0

Other Formats:

Comma delimited format used in spreadsheet applications
http://www.bom.gov.au/fwo/IDV60801/IDV60801.95936.axf

JavaScript Object Notation format (JSON) in row-major order
http://www.bom.gov.au/fwo/IDV60801/IDV60801.95936.json